Mariner Of The Seas — C6FV9 — position and weather

sailwx.info

Track history (hours):
 
Tides and Currents Weather Stations Pressure Air Temp Water Temp Dewpoint Dewpoint Depression Visibility Wind Speed Wind Dir Waves Ship Positions

Mariner Of The Seas

Operator: Royal Caribbean Cruises Ltd

Last reported at 2017-Nov-24 11:00 UTC. Time now 2017-Nov-24 22:23 UTC.
Position N 01°17' E 103°21'.

Type: Passenger vessel. MMSI: 311493000.

Date/timePositionNaut miles runAvg speedWind from/ knotsBaromVisibWave heightAir tempDewpointWater temp
2017-Nov-24 11:00N 01°17' E 103°21'1121.3
2017-Nov-24 10:30N 01°13' E 103°31'1020.0
2017-Nov-24 10:00N 01°10' E 103°41'713.6
2017-Nov-24 09:30N 01°10' E 103°47'611.7
2017-Nov-24 09:00N 01°13' E 103°52'3 5.6
2017-Nov-24 08:30N 01°16' E 103°52'0 0.5
2017-Nov-24 07:55N 01°16' E 103°52'0 0.0
2017-Nov-24 07:25N 01°16' E 103°52'0 0.0
2017-Nov-24 06:49N 01°16' E 103°52'0 0.0
2017-Nov-24 06:25N 01°16' E 103°52'0 0.0
2017-Nov-24 05:55N 01°16' E 103°52'0 0.0
2017-Nov-24 05:25N 01°16' E 103°52'0 0.0
2017-Nov-24 04:55N 01°16' E 103°52'0 0.0
2017-Nov-24 04:25N 01°16' E 103°52'0 0.0
2017-Nov-24 03:55N 01°16' E 103°52'0 0.0
2017-Nov-24 03:25N 01°16' E 103°52'0 0.0
2017-Nov-24 02:55N 01°16' E 103°52'0 0.0
2017-Nov-24 02:25N 01°16' E 103°52'0 0.0
2017-Nov-24 01:55N 01°16' E 103°52'0 0.0
2017-Nov-24 01:25N 01°16' E 103°52'0 0.0
2017-Nov-24 00:55N 01°16' E 103°52'0 0.0
2017-Nov-24 00:25N 01°16' E 103°52'0 0.0
2017-Nov-23 23:49N 01°16' E 103°52'0 1.2
2017-Nov-23 23:30N 01°16' E 103°52'3 6.9
2017-Nov-23 23:00N 01°13' E 103°53'611.6
2017-Nov-23 22:30N 01°10' E 103°48'612.1
2017-Nov-23 22:00N 01°06' E 103°44'611.2
2017-Nov-23 21:30N 01°02' E 103°39'613.0
2017-Nov-23 21:01N 01°06' E 103°34'611.8
2017-Nov-23 20:31N 01°08' E 103°28'712.6
2017-Nov-23 19:58N 01°12' E 103°23'611.9
2017-Nov-23 19:30N 01°16' E 103°19'712.2
2017-Nov-23 18:57N 01°20' E 103°14'  
2017-Nov-20 00:28N 01°16' E 103°52'0 0.0
2017-Nov-19 23:49N 01°16' E 103°52'0 0.5
2017-Nov-19 23:30N 01°16' E 103°52'4 7.3
2017-Nov-19 23:00N 01°12' E 103°53'612.0
2017-Nov-19 22:30N 01°10' E 103°47'612.6
2017-Nov-19 22:00N 01°05' E 103°43'611.5
2017-Nov-19 21:31N 01°03' E 103°38'612.8
2017-Nov-19 21:00N 01°06' E 103°32'612.5
2017-Nov-19 20:30N 01°10' E 103°27'712.6
2017-Nov-19 19:59N 01°14' E 103°22'29812.5
2017-Nov-18 20:15N 04°58' E 100°06'313.5
2017-Nov-18 20:00N 05°02' E 100°05'713.6
2017-Nov-18 19:30N 05°08' E 100°05'713.6
2017-Nov-18 19:01N 05°15' E 100°04'813.7
2017-Nov-18 18:27N 05°23' E 100°04'714.4
2017-Nov-18 17:58N 05°30' E 100°05'713.9
2017-Nov-18 17:27N 05°36' E 100°08'714.0
2017-Nov-18 16:59N 05°34' E 100°15'613.1
2017-Nov-18 16:30N 05°30' E 100°20'5 9.2
2017-Nov-18 16:00N 05°26' E 100°21'1 0.9
2017-Nov-18 15:25N 05°25' E 100°21'0 0.0
2017-Nov-18 14:55N 05°25' E 100°21'0 0.0
2017-Nov-18 14:19N 05°25' E 100°21'0 0.0
2017-Nov-18 13:07N 05°25' E 100°21'0 0.3
2017-Nov-18 12:55N 05°25' E 100°21'0 0.0
2017-Nov-18 12:25N 05°25' E 100°21'0 0.0
2017-Nov-18 11:49N 05°25' E 100°21'0 0.0
2017-Nov-18 11:25N 05°25' E 100°21'0 0.0
2017-Nov-18 10:55N 05°25' E 100°21'0 0.1
2017-Nov-18 10:25N 05°25' E 100°21'0 0.0
2017-Nov-18 09:43N 05°25' E 100°21'0 0.0
2017-Nov-18 09:19N 05°25' E 100°21'0 0.0
2017-Nov-18 08:49N 05°25' E 100°21'0 0.0
2017-Nov-18 08:25N 05°25' E 100°21'0 0.0
2017-Nov-18 07:49N 05°25' E 100°21'0 0.0
2017-Nov-18 07:07N 05°25' E 100°21'0 0.0
2017-Nov-18 06:55N 05°25' E 100°21'0 0.1
2017-Nov-18 06:30N 05°25' E 100°21'3 5.6
2017-Nov-18 06:00N 05°28' E 100°21'30816.1
2017-Nov-17 10:53N 01°18' E 103°21'822.0
2017-Nov-17 10:30N 01°13' E 103°28'1121.2
2017-Nov-17 10:00N 01°11' E 103°38'815.6
2017-Nov-17 09:30N 01°09' E 103°46'611.0
2017-Nov-17 08:58N 01°12' E 103°51'4 8.4
2017-Nov-17 08:30N 01°16' E 103°52'0 0.5
2017-Nov-17 07:58N 01°16' E 103°52'0 0.0
2017-Nov-17 07:25N 01°16' E 103°52'0 0.0
2017-Nov-17 06:55N 01°16' E 103°52'0 0.0
2017-Nov-17 06:25N 01°16' E 103°52'0 0.0
2017-Nov-17 05:55N 01°16' E 103°52'0 0.0
2017-Nov-17 05:25N 01°16' E 103°52'0 0.0
2017-Nov-17 04:58N 01°16' E 103°52'0 0.0
2017-Nov-17 04:25N 01°16' E 103°52'0 0.0
2017-Nov-17 03:58N 01°16' E 103°52'0 0.0
2017-Nov-17 03:25N 01°16' E 103°52'0 0.0
2017-Nov-17 02:55N 01°16' E 103°52'0 0.0
2017-Nov-17 02:25N 01°16' E 103°52'0 0.0
2017-Nov-17 01:55N 01°16' E 103°52'0 0.0
2017-Nov-17 01:25N 01°16' E 103°52'0 0.0
2017-Nov-17 00:55N 01°16' E 103°52'0 0.0
2017-Nov-17 00:19N 01°16' E 103°52'0 0.0
2017-Nov-17 00:00N 01°16' E 103°52'2 3.4
2017-Nov-16 23:30N 01°14' E 103°52'3 5.6
2017-Nov-16 23:00N 01°12' E 103°52'611.4
2017-Nov-16 22:30N 01°09' E 103°47'815.0
2017-Nov-16 22:00N 01°04' E 103°41'713.3
2017-Nov-16 21:30N 01°05' E 103°35'714.1
2017-Nov-16 21:00N 01°09' E 103°28'714.1
2017-Nov-16 20:30N 01°13' E 103°23'714.0
2017-Nov-16 20:00N 01°17' E 103°17'714.3
2017-Nov-16 19:30N 01°22' E 103°12'  
2017-Nov-14 14:29N 05°36' E 100°12'713.7
2017-Nov-14 14:00N 05°32' E 100°17'611.3
2017-Nov-14 13:30N 05°28' E 100°21'  
Track history (hours):
 
Tides and Currents Weather Stations Pressure Air Temp Water Temp Dewpoint Dewpoint Depression Visibility Wind Speed Wind Dir Waves Ship Positions

Mariner Of The Seas

Operator: Royal Caribbean Cruises Ltd

Last reported at 2017-Nov-24 11:00 UTC. Time now 2017-Nov-24 22:23 UTC.
Position N 01°17' E 103°21'.

Type: Passenger vessel. MMSI: 311493000.

Date/timePositionNaut miles runAvg speedWind from/ knotsBaromVisibWave heightAir tempDewpointWater temp
2017-Nov-24 11:00N 01°17' E 103°21'1121.3
2017-Nov-24 10:30N 01°13' E 103°31'1020.0
2017-Nov-24 10:00N 01°10' E 103°41'713.6
2017-Nov-24 09:30N 01°10' E 103°47'611.7
2017-Nov-24 09:00N 01°13' E 103°52'3 5.6
2017-Nov-24 08:30N 01°16' E 103°52'0 0.5
2017-Nov-24 07:55N 01°16' E 103°52'0 0.0
2017-Nov-24 07:25N 01°16' E 103°52'0 0.0
2017-Nov-24 06:49N 01°16' E 103°52'0 0.0
2017-Nov-24 06:25N 01°16' E 103°52'0 0.0
2017-Nov-24 05:55N 01°16' E 103°52'0 0.0
2017-Nov-24 05:25N 01°16' E 103°52'0 0.0
2017-Nov-24 04:55N 01°16' E 103°52'0 0.0
2017-Nov-24 04:25N 01°16' E 103°52'0 0.0
2017-Nov-24 03:55N 01°16' E 103°52'0 0.0
2017-Nov-24 03:25N 01°16' E 103°52'0 0.0
2017-Nov-24 02:55N 01°16' E 103°52'0 0.0
2017-Nov-24 02:25N 01°16' E 103°52'0 0.0
2017-Nov-24 01:55N 01°16' E 103°52'0 0.0
2017-Nov-24 01:25N 01°16' E 103°52'0 0.0
2017-Nov-24 00:55N 01°16' E 103°52'0 0.0
2017-Nov-24 00:25N 01°16' E 103°52'0 0.0
2017-Nov-23 23:49N 01°16' E 103°52'0 1.2
2017-Nov-23 23:30N 01°16' E 103°52'3 6.9
2017-Nov-23 23:00N 01°13' E 103°53'611.6
2017-Nov-23 22:30N 01°10' E 103°48'612.1
2017-Nov-23 22:00N 01°06' E 103°44'611.2
2017-Nov-23 21:30N 01°02' E 103°39'613.0
2017-Nov-23 21:01N 01°06' E 103°34'611.8
2017-Nov-23 20:31N 01°08' E 103°28'712.6
2017-Nov-23 19:58N 01°12' E 103°23'611.9
2017-Nov-23 19:30N 01°16' E 103°19'712.2
2017-Nov-23 18:57N 01°20' E 103°14'  
2017-Nov-20 00:28N 01°16' E 103°52'0 0.0
2017-Nov-19 23:49N 01°16' E 103°52'0 0.5
2017-Nov-19 23:30N 01°16' E 103°52'4 7.3
2017-Nov-19 23:00N 01°12' E 103°53'612.0
2017-Nov-19 22:30N 01°10' E 103°47'612.6
2017-Nov-19 22:00N 01°05' E 103°43'611.5
2017-Nov-19 21:31N 01°03' E 103°38'612.8
2017-Nov-19 21:00N 01°06' E 103°32'612.5
2017-Nov-19 20:30N 01°10' E 103°27'712.6
2017-Nov-19 19:59N 01°14' E 103°22'29812.5
2017-Nov-18 20:15N 04°58' E 100°06'313.5
2017-Nov-18 20:00N 05°02' E 100°05'713.6
2017-Nov-18 19:30N 05°08' E 100°05'713.6
2017-Nov-18 19:01N 05°15' E 100°04'813.7
2017-Nov-18 18:27N 05°23' E 100°04'714.4
2017-Nov-18 17:58N 05°30' E 100°05'713.9
2017-Nov-18 17:27N 05°36' E 100°08'714.0
2017-Nov-18 16:59N 05°34' E 100°15'613.1
2017-Nov-18 16:30N 05°30' E 100°20'5 9.2
2017-Nov-18 16:00N 05°26' E 100°21'1 0.9
2017-Nov-18 15:25N 05°25' E 100°21'0 0.0
2017-Nov-18 14:55N 05°25' E 100°21'0 0.0
2017-Nov-18 14:19N 05°25' E 100°21'0 0.0
2017-Nov-18 13:07N 05°25' E 100°21'0 0.3
2017-Nov-18 12:55N 05°25' E 100°21'0 0.0
2017-Nov-18 12:25N 05°25' E 100°21'0 0.0
2017-Nov-18 11:49N 05°25' E 100°21'0 0.0
2017-Nov-18 11:25N 05°25' E 100°21'0 0.0
2017-Nov-18 10:55N 05°25' E 100°21'0 0.1
2017-Nov-18 10:25N 05°25' E 100°21'0 0.0
2017-Nov-18 09:43N 05°25' E 100°21'0 0.0
2017-Nov-18 09:19N 05°25' E 100°21'0 0.0
2017-Nov-18 08:49N 05°25' E 100°21'0 0.0
2017-Nov-18 08:25N 05°25' E 100°21'0 0.0
2017-Nov-18 07:49N 05°25' E 100°21'0 0.0
2017-Nov-18 07:07N 05°25' E 100°21'0 0.0
2017-Nov-18 06:55N 05°25' E 100°21'0 0.1
2017-Nov-18 06:30N 05°25' E 100°21'3 5.6
2017-Nov-18 06:00N 05°28' E 100°21'30816.1
2017-Nov-17 10:53N 01°18' E 103°21'822.0
2017-Nov-17 10:30N 01°13' E 103°28'1121.2
2017-Nov-17 10:00N 01°11' E 103°38'815.6
2017-Nov-17 09:30N 01°09' E 103°46'611.0
2017-Nov-17 08:58N 01°12' E 103°51'4 8.4
2017-Nov-17 08:30N 01°16' E 103°52'0 0.5
2017-Nov-17 07:58N 01°16' E 103°52'0 0.0
2017-Nov-17 07:25N 01°16' E 103°52'0 0.0
2017-Nov-17 06:55N 01°16' E 103°52'0 0.0
2017-Nov-17 06:25N 01°16' E 103°52'0 0.0
2017-Nov-17 05:55N 01°16' E 103°52'0 0.0
2017-Nov-17 05:25N 01°16' E 103°52'0 0.0
2017-Nov-17 04:58N 01°16' E 103°52'0 0.0
2017-Nov-17 04:25N 01°16' E 103°52'0 0.0
2017-Nov-17 03:58N 01°16' E 103°52'0 0.0
2017-Nov-17 03:25N 01°16' E 103°52'0 0.0
2017-Nov-17 02:55N 01°16' E 103°52'0 0.0
2017-Nov-17 02:25N 01°16' E 103°52'0 0.0
2017-Nov-17 01:55N 01°16' E 103°52'0 0.0
2017-Nov-17 01:25N 01°16' E 103°52'0 0.0
2017-Nov-17 00:55N 01°16' E 103°52'0 0.0
2017-Nov-17 00:19N 01°16' E 103°52'0 0.0
2017-Nov-17 00:00N 01°16' E 103°52'2 3.4
2017-Nov-16 23:30N 01°14' E 103°52'3 5.6
2017-Nov-16 23:00N 01°12' E 103°52'611.4
2017-Nov-16 22:30N 01°09' E 103°47'815.0
2017-Nov-16 22:00N 01°04' E 103°41'713.3
2017-Nov-16 21:30N 01°05' E 103°35'714.1
2017-Nov-16 21:00N 01°09' E 103°28'714.1
2017-Nov-16 20:30N 01°13' E 103°23'714.0
2017-Nov-16 20:00N 01°17' E 103°17'714.3
2017-Nov-16 19:30N 01°22' E 103°12'  
2017-Nov-14 14:29N 05°36' E 100°12'713.7
2017-Nov-14 14:00N 05°32' E 100°17'611.3
2017-Nov-14 13:30N 05°28' E 100°21'  

Dump ship's entire track history